Time;durP1;ratioP1;P1;durP2;ratioP2;P2;SDS_P1;SDS_P2;PMS_P1;PMS_P2;Temp;Humidity;BMP_temperature;BMP_pressure;BME280_temperature;BME280_humidity;BME280_pressure;Samples;Min_cycle;Max_cycle;Signal;HPM_P1;HPM_P2
2023/12/18 00:00:52;;;;;;;25.90;11.88;;;;;;;;;;5014066;28;20214;-78
2023/12/18 00:03:39;;;;;;;23.50;11.82;;;;;;;;;;5014076;28;20542;-78
2023/12/18 00:06:07;;;;;;;22.67;12.40;;;;;;;;;;5014054;28;20236;-78
2023/12/18 00:08:34;;;;;;;21.70;11.82;;;;;;;;;;5013765;28;20201;-78
2023/12/18 00:11:02;;;;;;;31.23;13.23;;;;;;;;;;5014079;28;20220;-78
2023/12/18 00:13:29;;;;;;;24.92;13.95;;;;;;;;;;5013824;28;20220;-78
2023/12/18 00:15:56;;;;;;;21.77;12.73;;;;;;;;;;5014024;28;20569;-78
2023/12/18 00:18:23;;;;;;;20.10;11.10;;;;;;;;;;4996685;28;20242;-77
2023/12/18 00:20:52;;;;;;;30.83;12.70;;;;;;;;;;5013972;28;20236;-78
2023/12/18 00:23:19;;;;;;;32.20;12.70;;;;;;;;;;5013730;28;20209;-78
2023/12/18 00:25:46;;;;;;;22.33;12.82;;;;;;;;;;5014079;28;20189;-79
2023/12/18 00:28:13;;;;;;;28.88;12.25;;;;;;;;;;5013496;28;20213;-79
2023/12/18 00:30:41;;;;;;;26.65;12.05;;;;;;;;;;5013892;28;20209;-79
2023/12/18 00:33:08;;;;;;;24.20;12.73;;;;;;;;;;5013329;28;20598;-79
2023/12/18 00:35:35;;;;;;;34.95;13.55;;;;;;;;;;5013607;28;20221;-79
2023/12/18 00:38:03;;;;;;;24.25;12.27;;;;;;;;;;5013381;28;20568;-79
2023/12/18 00:40:30;;;;;;;28.58;12.48;;;;;;;;;;5013445;28;20209;-78
2023/12/18 00:42:57;;;;;;;25.27;12.07;;;;;;;;;;5013467;28;20208;-78
2023/12/18 00:45:24;;;;;;;30.35;12.73;;;;;;;;;;5013374;28;20296;-78
2023/12/18 00:47:52;;;;;;;24.70;12.55;;;;;;;;;;5013222;28;20213;-77
2023/12/18 00:50:19;;;;;;;25.52;12.35;;;;;;;;;;5013342;28;20233;-78
2023/12/18 00:52:47;;;;;;;27.55;12.75;;;;;;;;;;4995909;28;20237;-80
2023/12/18 00:55:14;;;;;;;26.38;12.70;;;;;;;;;;5013053;28;20237;-77
2023/12/18 00:57:41;;;;;;;28.55;13.18;;;;;;;;;;5012790;28;20197;-78
2023/12/18 01:00:11;;;;;;;28.60;13.32;;;;;;;;;;5013246;28;20267;-78
2023/12/18 01:02:38;;;;;;;27.83;12.73;;;;;;;;;;5011878;28;20205;-78
2023/12/18 01:05:05;;;;;;;29.43;12.47;;;;;;;;;;5013041;28;20220;-79
2023/12/18 01:07:32;;;;;;;24.77;12.73;;;;;;;;;;5012536;28;20214;-79
2023/12/18 01:10:00;;;;;;;37.97;14.63;;;;;;;;;;5012763;28;20243;-79
2023/12/18 01:12:27;;;;;;;26.92;12.90;;;;;;;;;;5012679;28;20202;-79
2023/12/18 01:14:54;;;;;;;32.55;13.75;;;;;;;;;;5012747;28;20658;-79
2023/12/18 01:17:21;;;;;;;29.02;13.10;;;;;;;;;;5012678;28;20213;-78
2023/12/18 01:20:02;;;;;;;26.27;13.48;;;;;;;;;;5013240;28;20205;-78
2023/12/18 01:22:29;;;;;;;34.17;14.10;;;;;;;;;;4995168;28;20205;-78
2023/12/18 01:24:56;;;;;;;27.47;12.43;;;;;;;;;;5013354;28;20209;-78
2023/12/18 01:27:25;;;;;;;30.40;13.77;;;;;;;;;;5012602;28;20209;-78
2023/12/18 01:29:52;;;;;;;28.00;12.80;;;;;;;;;;5012941;28;20772;-77
2023/12/18 01:32:19;;;;;;;25.77;12.68;;;;;;;;;;5016548;28;20197;-80
2023/12/18 01:34:46;;;;;;;30.33;13.63;;;;;;;;;;5017241;28;20225;-78
2023/12/18 01:37:13;;;;;;;23.17;12.07;;;;;;;;;;5015309;28;20198;-78
2023/12/18 01:39:40;;;;;;;25.93;13.23;;;;;;;;;;5013138;28;20208;-78
2023/12/18 01:42:07;;;;;;;23.80;12.53;;;;;;;;;;5012468;28;20251;-78
2023/12/18 01:44:34;;;;;;;30.23;13.33;;;;;;;;;;5012748;28;20284;-80
2023/12/18 01:47:01;;;;;;;34.70;13.80;;;;;;;;;;4999635;28;20197;-81
2023/12/18 01:49:28;;;;;;;27.77;13.43;;;;;;;;;;5016408;28;20715;-78
2023/12/18 01:51:56;;;;;;;27.42;12.40;;;;;;;;;;5016380;28;20702;-78
2023/12/18 01:54:23;;;;;;;27.13;13.70;;;;;;;;;;5015351;28;20965;-78
2023/12/18 01:56:52;;;;;;;20.15;10.75;;;;;;;;;;5015335;28;20205;-78
2023/12/18 01:59:21;;;;;;;25.37;12.70;;;;;;;;;;4999078;28;20235;-78
2023/12/18 02:01:48;;;;;;;24.55;12.40;;;;;;;;;;5016279;28;20193;-78
2023/12/18 02:04:16;;;;;;;21.42;11.65;;;;;;;;;;5015434;28;20237;-78
2023/12/18 02:06:44;;;;;;;26.40;11.50;;;;;;;;;;5016631;28;20209;-79
2023/12/18 02:09:11;;;;;;;26.47;12.23;;;;;;;;;;5014873;28;20208;-78
2023/12/18 02:11:40;;;;;;;24.77;11.70;;;;;;;;;;5016036;28;20251;-78
2023/12/18 02:14:07;;;;;;;23.35;11.50;;;;;;;;;;5014941;28;20202;-77
2023/12/18 02:16:35;;;;;;;21.30;11.15;;;;;;;;;;5015936;28;20194;-77
2023/12/18 02:19:01;;;;;;;21.40;10.30;;;;;;;;;;5016197;28;20241;-78
2023/12/18 02:21:29;;;;;;;20.67;10.13;;;;;;;;;;5015559;28;20229;-79
2023/12/18 02:23:56;;;;;;;22.35;11.60;;;;;;;;;;5016029;28;20209;-78
2023/12/18 02:26:23;;;;;;;21.23;10.57;;;;;;;;;;5015890;28;20670;-78
2023/12/18 02:28:50;;;;;;;26.50;11.13;;;;;;;;;;5015727;28;20218;-78
2023/12/18 02:31:18;;;;;;;20.38;11.27;;;;;;;;;;5015611;28;20684;-78
2023/12/18 02:33:48;;;;;;;26.13;10.97;;;;;;;;;;5015909;28;20222;-78
2023/12/18 02:36:16;;;;;;;18.80;10.50;;;;;;;;;;4998495;28;20217;-78
2023/12/18 02:38:43;;;;;;;21.33;10.50;;;;;;;;;;5015255;28;20233;-78
2023/12/18 02:41:11;;;;;;;20.95;10.80;;;;;;;;;;5015755;28;20244;-78
2023/12/18 02:43:38;;;;;;;19.20;9.93;;;;;;;;;;5014178;28;20260;-78
2023/12/18 02:46:05;;;;;;;24.05;12.05;;;;;;;;;;5015594;28;20220;-78
2023/12/18 02:48:32;;;;;;;20.98;11.48;;;;;;;;;;5015913;28;20312;-78
2023/12/18 02:50:59;;;;;;;16.55;10.10;;;;;;;;;;5015579;28;20229;-78
2023/12/18 02:53:26;;;;;;;21.45;11.40;;;;;;;;;;5015059;28;20229;-78
2023/12/18 02:55:53;;;;;;;18.08;10.63;;;;;;;;;;5015318;28;20602;-78
2023/12/18 02:58:22;;;;;;;22.75;10.45;;;;;;;;;;5014140;28;20205;-79
2023/12/18 03:00:50;;;;;;;19.55;10.55;;;;;;;;;;5015309;28;20550;-77
2023/12/18 03:03:17;;;;;;;20.05;11.00;;;;;;;;;;5015402;28;20229;-77
2023/12/18 03:05:45;;;;;;;16.27;10.27;;;;;;;;;;5015430;28;20284;-77
2023/12/18 03:08:12;;;;;;;20.40;10.52;;;;;;;;;;5015399;28;20213;-77
2023/12/18 03:10:39;;;;;;;18.50;9.55;;;;;;;;;;5015252;28;20225;-77
2023/12/18 03:13:06;;;;;;;15.38;8.80;;;;;;;;;;4997886;28;20684;-77
2023/12/18 03:15:33;;;;;;;18.20;10.48;;;;;;;;;;5015423;28;20209;-77
2023/12/18 03:18:00;;;;;;;15.80;9.48;;;;;;;;;;5015071;28;20209;-78
2023/12/18 03:20:28;;;;;;;19.83;9.35;;;;;;;;;;5015105;28;20193;-77
2023/12/18 03:22:55;;;;;;;15.25;9.20;;;;;;;;;;5014813;28;20216;-77
2023/12/18 03:25:22;;;;;;;14.60;9.27;;;;;;;;;;5015067;28;20197;-77
2023/12/18 03:27:49;;;;;;;19.40;10.77;;;;;;;;;;5015005;28;20201;-77
2023/12/18 03:30:16;;;;;;;17.70;10.82;;;;;;;;;;5014720;28;20325;-77
2023/12/18 03:32:43;;;;;;;19.25;10.48;;;;;;;;;;5014651;28;20669;-77
2023/12/18 03:35:11;;;;;;;15.57;8.23;;;;;;;;;;5014912;28;20248;-77
2023/12/18 03:37:38;;;;;;;20.05;10.07;;;;;;;;;;5014668;28;20666;-77
2023/12/18 03:40:06;;;;;;;25.08;12.10;;;;;;;;;;5013330;28;20197;-77
2023/12/18 03:42:33;;;;;;;19.15;9.95;;;;;;;;;;5014815;28;20276;-78
2023/12/18 03:45:00;;;;;;;24.98;11.70;;;;;;;;;;5014485;28;20247;-78
2023/12/18 03:47:27;;;;;;;20.15;9.82;;;;;;;;;;5014474;28;20194;-78
2023/12/18 03:49:55;;;;;;;19.92;9.85;;;;;;;;;;5014895;28;20313;-78
2023/12/18 03:52:22;;;;;;;14.95;9.95;;;;;;;;;;5014985;28;20308;-79
2023/12/18 03:54:49;;;;;;;17.52;9.90;;;;;;;;;;5014640;28;20255;-77
2023/12/18 03:57:16;;;;;;;21.05;10.18;;;;;;;;;;5014139;28;20205;-77
2023/12/18 03:59:43;;;;;;;18.05;10.32;;;;;;;;;;5014653;28;20209;-79
2023/12/18 04:02:10;;;;;;;25.70;11.52;;;;;;;;;;5015183;28;20198;-77
2023/12/18 04:04:37;;;;;;;21.73;10.50;;;;;;;;;;5015406;28;20196;-77
2023/12/18 04:07:04;;;;;;;18.65;9.75;;;;;;;;;;5014859;28;20605;-78
2023/12/18 04:09:32;;;;;;;29.50;12.35;;;;;;;;;;4996579;28;20201;-77
2023/12/18 04:11:59;;;;;;;16.55;9.35;;;;;;;;;;5013638;28;20259;-77
2023/12/18 04:14:26;;;;;;;20.20;11.25;;;;;;;;;;5013972;28;20565;-77
2023/12/18 04:16:53;;;;;;;18.52;10.20;;;;;;;;;;5013706;28;20228;-77
2023/12/18 04:19:20;;;;;;;23.42;10.32;;;;;;;;;;5013630;28;20205;-77
2023/12/18 04:21:48;;;;;;;21.35;11.48;;;;;;;;;;5013628;28;20197;-77
2023/12/18 04:24:15;;;;;;;28.13;10.18;;;;;;;;;;5012829;28;20610;-77
2023/12/18 04:26:46;;;;;;;15.65;9.60;;;;;;;;;;5013600;28;20658;-78
2023/12/18 04:29:13;;;;;;;21.65;9.85;;;;;;;;;;5013433;28;20213;-77
2023/12/18 04:31:40;;;;;;;30.10;15.52;;;;;;;;;;5013681;28;20256;-80
2023/12/18 04:34:07;;;;;;;24.10;11.82;;;;;;;;;;5013721;28;20209;-78
2023/12/18 04:36:38;;;;;;;18.48;10.48;;;;;;;;;;5012402;28;20212;-79
2023/12/18 04:39:06;;;;;;;22.27;9.27;;;;;;;;;;5008031;28;20193;-78
2023/12/18 04:41:34;;;;;;;15.82;8.80;;;;;;;;;;4996242;28;20213;-79
2023/12/18 04:44:01;;;;;;;19.85;10.98;;;;;;;;;;5013325;28;20223;-78
2023/12/18 04:46:34;;;;;;;23.73;13.05;;;;;;;;;;5013537;28;20216;-78
2023/12/18 04:49:02;;;;;;;17.92;10.32;;;;;;;;;;5013424;28;20252;-79
2023/12/18 04:51:30;;;;;;;21.33;10.50;;;;;;;;;;4995874;28;20224;-79
2023/12/18 04:53:57;;;;;;;19.83;10.30;;;;;;;;;;5013254;28;20201;-79
2023/12/18 04:56:24;;;;;;;16.35;9.73;;;;;;;;;;4995911;28;20211;-79
2023/12/18 04:58:52;;;;;;;18.73;10.70;;;;;;;;;;5013353;28;20225;-79
2023/12/18 05:01:18;;;;;;;18.55;10.32;;;;;;;;;;5013090;28;20219;-79
2023/12/18 05:03:46;;;;;;;26.73;12.23;;;;;;;;;;5013179;28;20202;-79
2023/12/18 05:06:19;;;;;;;17.90;9.13;;;;;;;;;;5005450;28;20235;-79
2023/12/18 05:08:48;;;;;;;20.88;10.95;;;;;;;;;;5006651;28;20694;-79
2023/12/18 05:11:20;;;;;;;16.70;10.35;;;;;;;;;;5010921;28;20237;-79
2023/12/18 05:13:47;;;;;;;17.63;10.43;;;;;;;;;;5012107;28;20248;-79
2023/12/18 05:16:15;;;;;;;18.45;10.73;;;;;;;;;;5011078;28;20229;-79
2023/12/18 05:18:42;;;;;;;19.80;10.68;;;;;;;;;;5011646;28;20229;-79
2023/12/18 05:21:10;;;;;;;31.23;15.85;;;;;;;;;;5010225;28;20635;-79
2023/12/18 05:23:39;;;;;;;22.48;10.52;;;;;;;;;;5012062;28;20246;-79
2023/12/18 05:26:05;;;;;;;23.95;12.02;;;;;;;;;;5011606;28;20230;-79
2023/12/18 05:28:34;;;;;;;22.67;11.77;;;;;;;;;;5012211;28;20225;-78
2023/12/18 05:31:01;;;;;;;24.80;14.68;;;;;;;;;;5011742;28;20233;-79
2023/12/18 05:33:28;;;;;;;18.80;10.52;;;;;;;;;;5011943;28;20240;-78
2023/12/18 05:35:55;;;;;;;19.85;10.27;;;;;;;;;;5010950;28;20228;-79
2023/12/18 05:38:23;;;;;;;18.35;11.10;;;;;;;;;;5011232;28;20225;-79
2023/12/18 05:40:50;;;;;;;26.35;11.63;;;;;;;;;;5011875;28;20611;-79
2023/12/18 05:43:17;;;;;;;18.00;9.73;;;;;;;;;;5011441;28;20749;-78
2023/12/18 05:45:44;;;;;;;21.05;12.20;;;;;;;;;;5010422;28;20224;-78
2023/12/18 05:48:11;;;;;;;19.02;10.15;;;;;;;;;;5010474;28;20291;-78
2023/12/18 05:50:38;;;;;;;22.33;12.32;;;;;;;;;;5010449;28;20241;-78
2023/12/18 05:53:06;;;;;;;18.88;11.43;;;;;;;;;;5010989;28;20236;-78
2023/12/18 05:55:32;;;;;;;20.42;12.07;;;;;;;;;;5011162;28;20213;-79
2023/12/18 05:58:00;;;;;;;21.80;11.82;;;;;;;;;;5008660;28;20229;-78
2023/12/18 06:00:26;;;;;;;36.85;15.57;;;;;;;;;;5010855;28;20220;-78
2023/12/18 06:02:54;;;;;;;18.00;11.32;;;;;;;;;;5011184;28;20237;-78
2023/12/18 06:05:21;;;;;;;21.00;11.77;;;;;;;;;;5011248;28;20617;-78
2023/12/18 06:07:48;;;;;;;25.55;11.73;;;;;;;;;;5011260;28;20241;-77
2023/12/18 06:10:15;;;;;;;21.02;11.30;;;;;;;;;;5010842;28;20221;-77
2023/12/18 06:12:42;;;;;;;21.10;11.60;;;;;;;;;;5010868;28;20248;-78
2023/12/18 06:15:10;;;;;;;25.57;12.20;;;;;;;;;;5006892;28;20222;-78
2023/12/18 06:17:37;;;;;;;24.25;12.00;;;;;;;;;;5015184;28;20209;-78
2023/12/18 06:20:05;;;;;;;23.20;11.73;;;;;;;;;;5014785;28;20189;-77
2023/12/18 06:22:34;;;;;;;24.58;10.98;;;;;;;;;;5015708;28;20337;-77
2023/12/18 06:25:02;;;;;;;22.40;13.25;;;;;;;;;;5010128;28;20186;-77
2023/12/18 06:27:30;;;;;;;18.80;12.20;;;;;;;;;;5013253;28;20200;-80
2023/12/18 06:29:57;;;;;;;21.95;12.43;;;;;;;;;;5015926;28;20209;-77
2023/12/18 06:32:24;;;;;;;18.08;11.05;;;;;;;;;;5025357;28;20224;-77
2023/12/18 06:34:51;;;;;;;20.48;10.88;;;;;;;;;;5035099;28;20586;-77
2023/12/18 06:37:19;;;;;;;20.23;11.77;;;;;;;;;;5035483;28;20205;-77
2023/12/18 06:39:46;;;;;;;25.98;13.85;;;;;;;;;;5034957;28;20251;-78
2023/12/18 06:42:13;;;;;;;17.27;11.97;;;;;;;;;;5035509;28;20201;-77
2023/12/18 06:44:40;;;;;;;19.67;11.35;;;;;;;;;;5035400;28;20234;-77
2023/12/18 06:47:08;;;;;;;30.52;16.55;;;;;;;;;;5035261;28;20280;-77
2023/12/18 06:49:34;;;;;;;23.45;11.93;;;;;;;;;;5035196;28;20192;-78
2023/12/18 06:52:02;;;;;;;22.88;12.48;;;;;;;;;;5035007;28;20244;-78
2023/12/18 06:54:29;;;;;;;25.23;14.52;;;;;;;;;;5006730;28;20197;-78
2023/12/18 06:56:56;;;;;;;21.30;11.82;;;;;;;;;;5015676;28;20655;-78
2023/12/18 06:59:23;;;;;;;20.45;11.65;;;;;;;;;;5014963;28;20213;-78
2023/12/18 07:01:51;;;;;;;24.63;11.90;;;;;;;;;;5025859;28;20208;-78
2023/12/18 07:04:18;;;;;;;22.35;12.95;;;;;;;;;;5034691;28;20228;-78
2023/12/18 07:06:45;;;;;;;30.48;15.70;;;;;;;;;;5033906;28;20201;-78
2023/12/18 07:09:12;;;;;;;38.33;18.02;;;;;;;;;;5033713;28;20284;-78
2023/12/18 07:11:40;;;;;;;32.03;15.90;;;;;;;;;;5035081;28;20220;-78
2023/12/18 07:14:07;;;;;;;26.48;13.73;;;;;;;;;;5025979;28;20209;-78
2023/12/18 07:16:35;;;;;;;31.05;18.50;;;;;;;;;;5015360;28;20553;-78
2023/12/18 07:19:02;;;;;;;25.27;14.65;;;;;;;;;;5014815;28;20530;-78
2023/12/18 07:21:29;;;;;;;23.25;13.40;;;;;;;;;;5015163;28;20256;-78
2023/12/18 07:23:56;;;;;;;29.23;13.45;;;;;;;;;;5015065;28;20209;-78
2023/12/18 07:26:23;;;;;;;20.77;12.98;;;;;;;;;;5015088;28;20201;-78
2023/12/18 07:28:50;;;;;;;20.80;12.40;;;;;;;;;;5016874;28;20210;-77
2023/12/18 07:31:18;;;;;;;19.70;11.65;;;;;;;;;;5034322;28;20283;-77
2023/12/18 07:33:45;;;;;;;24.27;12.30;;;;;;;;;;5034721;28;20719;-77
2023/12/18 07:36:13;;;;;;;23.88;12.82;;;;;;;;;;5034481;28;20232;-78
2023/12/18 07:38:40;;;;;;;21.17;13.20;;;;;;;;;;5034909;28;20248;-77
2023/12/18 07:41:07;;;;;;;26.90;13.32;;;;;;;;;;5034165;28;20201;-77
2023/12/18 07:43:34;;;;;;;27.17;13.47;;;;;;;;;;5033569;28;20195;-77
2023/12/18 07:46:02;;;;;;;27.30;13.10;;;;;;;;;;5034183;28;20208;-78
2023/12/18 07:48:31;;;;;;;20.05;11.57;;;;;;;;;;5034437;28;20688;-77
2023/12/18 07:50:58;;;;;;;32.65;14.43;;;;;;;;;;5032697;28;20732;-78
2023/12/18 07:53:25;;;;;;;34.20;14.63;;;;;;;;;;4994598;28;20242;-77
2023/12/18 07:55:53;;;;;;;23.05;13.07;;;;;;;;;;4994736;28;20199;-77
2023/12/18 07:58:20;;;;;;;25.20;13.45;;;;;;;;;;4996179;28;20198;-77
2023/12/18 08:00:47;;;;;;;25.90;14.07;;;;;;;;;;5034315;28;20189;-77
2023/12/18 08:03:14;;;;;;;25.42;12.95;;;;;;;;;;5034005;28;20205;-77
2023/12/18 08:05:42;;;;;;;27.90;13.77;;;;;;;;;;5034077;28;20193;-77
2023/12/18 08:08:09;;;;;;;27.08;11.90;;;;;;;;;;5033762;28;20212;-77
2023/12/18 08:10:36;;;;;;;31.77;17.20;;;;;;;;;;5033951;28;20200;-77
2023/12/18 08:13:03;;;;;;;22.45;12.73;;;;;;;;;;5033636;28;20200;-78
2023/12/18 08:15:30;;;;;;;27.85;13.80;;;;;;;;;;5033909;28;20197;-77
2023/12/18 08:17:57;;;;;;;24.33;13.02;;;;;;;;;;5033202;28;20213;-77
2023/12/18 08:20:25;;;;;;;22.42;12.43;;;;;;;;;;5016588;28;20300;-77
2023/12/18 08:22:52;;;;;;;29.58;13.85;;;;;;;;;;5015935;28;20680;-78
2023/12/18 08:25:21;;;;;;;30.33;13.30;;;;;;;;;;5014063;28;20202;-77
2023/12/18 08:27:47;;;;;;;20.85;11.45;;;;;;;;;;5013915;28;20243;-77
2023/12/18 08:30:15;;;;;;;24.08;12.73;;;;;;;;;;5014031;28;20659;-78
2023/12/18 08:32:42;;;;;;;48.65;25.08;;;;;;;;;;5013620;28;20249;-78
2023/12/18 08:35:10;;;;;;;29.83;13.40;;;;;;;;;;5013693;28;20207;-78
2023/12/18 08:37:37;;;;;;;26.50;12.30;;;;;;;;;;5013964;28;20251;-77
2023/12/18 08:40:05;;;;;;;29.98;12.90;;;;;;;;;;5013252;28;20209;-77
2023/12/18 08:42:32;;;;;;;30.98;14.65;;;;;;;;;;5013756;28;20289;-78
2023/12/18 08:44:59;;;;;;;29.25;14.10;;;;;;;;;;5013265;28;20217;-78
2023/12/18 08:47:26;;;;;;;26.70;12.32;;;;;;;;;;5013332;28;20556;-77
2023/12/18 08:49:54;;;;;;;20.77;12.32;;;;;;;;;;5015548;28;20208;-78
2023/12/18 08:52:21;;;;;;;25.40;12.95;;;;;;;;;;5033166;28;20298;-77
2023/12/18 08:54:48;;;;;;;31.97;16.00;;;;;;;;;;5032462;28;20197;-80
2023/12/18 08:57:15;;;;;;;25.90;13.47;;;;;;;;;;5033325;28;20669;-80
2023/12/18 08:59:42;;;;;;;21.13;12.30;;;;;;;;;;5033217;28;20251;-77
2023/12/18 09:02:10;;;;;;;23.10;11.85;;;;;;;;;;5032091;28;20216;-78
2023/12/18 09:04:37;;;;;;;36.17;18.30;;;;;;;;;;5031372;28;20209;-78
2023/12/18 09:07:05;;;;;;;19.85;12.68;;;;;;;;;;5033052;28;20650;-77
2023/12/18 09:09:32;;;;;;;25.50;13.57;;;;;;;;;;5032963;28;20201;-77
2023/12/18 09:11:59;;;;;;;22.40;12.27;;;;;;;;;;5032740;28;20220;-77
2023/12/18 09:14:26;;;;;;;24.73;13.60;;;;;;;;;;5032748;28;20205;-78
2023/12/18 09:16:53;;;;;;;35.17;19.27;;;;;;;;;;5032772;28;20669;-78
2023/12/18 09:19:20;;;;;;;25.92;13.45;;;;;;;;;;5032845;28;20196;-78
2023/12/18 09:21:47;;;;;;;28.70;13.55;;;;;;;;;;5015129;28;20208;-77
2023/12/18 09:24:15;;;;;;;22.15;13.50;;;;;;;;;;5032831;28;20209;-78
2023/12/18 09:26:42;;;;;;;30.80;15.48;;;;;;;;;;5032540;28;20204;-78
2023/12/18 09:29:09;;;;;;;30.98;14.88;;;;;;;;;;5032479;28;20258;-78
2023/12/18 09:31:36;;;;;;;27.30;14.40;;;;;;;;;;5032229;28;20221;-78
2023/12/18 09:34:03;;;;;;;29.73;14.60;;;;;;;;;;5032170;28;20207;-78
2023/12/18 09:36:31;;;;;;;41.20;18.60;;;;;;;;;;5032734;28;20196;-77
2023/12/18 09:38:58;;;;;;;38.88;17.77;;;;;;;;;;5032557;28;20204;-77
2023/12/18 09:41:26;;;;;;;32.40;15.82;;;;;;;;;;5032405;28;20292;-77
2023/12/18 09:43:54;;;;;;;28.95;16.17;;;;;;;;;;5012629;28;20226;-77
2023/12/18 09:46:22;;;;;;;22.75;14.68;;;;;;;;;;4995594;28;20229;-78
2023/12/18 09:48:50;;;;;;;35.03;17.65;;;;;;;;;;5012839;28;20197;-78
2023/12/18 09:51:20;;;;;;;34.92;17.33;;;;;;;;;;5012888;28;20192;-77
2023/12/18 09:53:49;;;;;;;33.22;16.80;;;;;;;;;;5011348;28;20193;-78
2023/12/18 09:56:18;;;;;;;34.65;16.70;;;;;;;;;;5012847;28;20201;-77
2023/12/18 09:58:46;;;;;;;73.43;31.55;;;;;;;;;;5011096;28;20255;-78
2023/12/18 10:01:14;;;;;;;38.47;17.67;;;;;;;;;;5017386;28;20200;-78
2023/12/18 10:03:42;;;;;;;27.98;15.57;;;;;;;;;;5003759;28;20202;-78
2023/12/18 10:06:09;;;;;;;31.27;16.25;;;;;;;;;;5021372;28;20240;-78
2023/12/18 10:08:37;;;;;;;28.40;16.33;;;;;;;;;;5022299;28;20205;-79
2023/12/18 10:11:04;;;;;;;33.65;16.30;;;;;;;;;;5025426;28;20750;-77
2023/12/18 10:13:31;;;;;;;37.53;17.60;;;;;;;;;;5023006;28;20221;-78
2023/12/18 10:15:58;;;;;;;37.78;18.13;;;;;;;;;;5014401;28;20247;-78
2023/12/18 10:18:26;;;;;;;36.77;16.00;;;;;;;;;;5027677;28;20217;-78
2023/12/18 10:20:54;;;;;;;39.42;17.73;;;;;;;;;;5028491;28;20315;-78
2023/12/18 10:23:23;;;;;;;29.17;16.05;;;;;;;;;;5020188;28;20229;-78
2023/12/18 10:25:49;;;;;;;27.47;14.47;;;;;;;;;;5016906;28;20241;-78
2023/12/18 10:28:17;;;;;;;30.02;16.60;;;;;;;;;;5014723;28;20225;-78
2023/12/18 10:30:44;;;;;;;48.25;19.30;;;;;;;;;;5004734;28;20573;-78
2023/12/18 10:33:11;;;;;;;28.90;16.17;;;;;;;;;;5030886;28;20228;-78
2023/12/18 10:35:39;;;;;;;45.95;18.75;;;;;;;;;;5031829;28;20721;-77
2023/12/18 10:38:06;;;;;;;61.40;23.27;;;;;;;;;;5032324;28;20245;-77
2023/12/18 10:40:34;;;;;;;24.88;14.73;;;;;;;;;;5005951;28;20237;-78
2023/12/18 10:43:06;;;;;;;39.33;18.40;;;;;;;;;;5028557;28;20236;-78
2023/12/18 10:45:34;;;;;;;42.10;17.25;;;;;;;;;;5016188;28;20308;-78
2023/12/18 10:48:02;;;;;;;32.45;16.13;;;;;;;;;;5013580;28;20229;-78
2023/12/18 10:50:32;;;;;;;27.02;14.15;;;;;;;;;;5013787;28;20233;-78
2023/12/18 10:53:00;;;;;;;45.13;19.45;;;;;;;;;;5000366;28;20246;-78
2023/12/18 10:55:27;;;;;;;35.35;17.20;;;;;;;;;;4958924;28;20227;-78
2023/12/18 10:57:57;;;;;;;35.40;16.77;;;;;;;;;;4975023;28;20245;-78
2023/12/18 11:00:24;;;;;;;34.28;16.13;;;;;;;;;;4975147;28;20245;-79
2023/12/18 11:02:52;;;;;;;32.03;15.48;;;;;;;;;;5012311;28;20229;-78
2023/12/18 11:05:20;;;;;;;29.42;15.18;;;;;;;;;;5014443;28;20233;-78
2023/12/18 11:07:47;;;;;;;22.77;13.27;;;;;;;;;;5014169;28;20240;-78
2023/12/18 11:10:14;;;;;;;35.90;15.55;;;;;;;;;;5013533;28;20225;-78
2023/12/18 11:12:42;;;;;;;33.75;16.08;;;;;;;;;;4996665;28;20279;-78
2023/12/18 11:15:43;;;;;;;29.13;14.32;;;;;;;;;;5014155;28;20224;-79
2023/12/18 11:18:19;;;;;;;25.88;14.25;;;;;;;;;;4971472;28;20297;-78
2023/12/18 11:20:48;;;;;;;22.70;13.88;;;;;;;;;;4973230;28;20233;-77
2023/12/18 11:23:16;;;;;;;30.58;14.52;;;;;;;;;;4971483;28;20250;-80
2023/12/18 11:25:48;;;;;;;21.25;11.93;;;;;;;;;;4945067;28;20236;-80
2023/12/18 11:28:20;;;;;;;33.90;13.80;;;;;;;;;;4934995;29;20666;-79
2023/12/18 11:30:47;;;;;;;25.75;14.65;;;;;;;;;;4946820;29;20274;-78
2023/12/18 11:33:14;;;;;;;23.00;12.55;;;;;;;;;;4953932;28;20271;-78
2023/12/18 11:35:48;;;;;;;23.75;13.77;;;;;;;;;;4954144;28;20211;-78
2023/12/18 11:38:18;;;;;;;25.88;14.18;;;;;;;;;;4938293;29;20203;-78
2023/12/18 11:40:48;;;;;;;35.83;18.92;;;;;;;;;;4953949;28;20220;-78
2023/12/18 11:43:35;;;;;;;27.33;17.00;;;;;;;;;;4950693;29;20673;-78
2023/12/18 11:46:06;;;;;;;28.70;15.98;;;;;;;;;;4972823;28;20711;-78
2023/12/18 11:48:44;;;;;;;29.23;15.07;;;;;;;;;;4972903;28;20245;-78
2023/12/18 11:51:12;;;;;;;31.85;15.98;;;;;;;;;;4972989;28;20211;-78
2023/12/18 11:53:40;;;;;;;28.45;16.08;;;;;;;;;;4995940;28;20242;-78
2023/12/18 11:56:11;;;;;;;31.00;15.15;;;;;;;;;;4994782;28;20584;-78
2023/12/18 11:58:43;;;;;;;31.15;16.23;;;;;;;;;;4993344;28;20201;-78
2023/12/18 12:01:12;;;;;;;29.38;15.48;;;;;;;;;;4994611;28;20593;-78
2023/12/18 12:03:40;;;;;;;27.02;14.88;;;;;;;;;;4994430;28;20675;-78
2023/12/18 12:06:08;;;;;;;33.70;17.17;;;;;;;;;;5013692;28;20709;-79
2023/12/18 12:08:48;;;;;;;36.50;18.52;;;;;;;;;;5012762;28;20198;-77
2023/12/18 12:11:15;;;;;;;45.20;20.13;;;;;;;;;;5014116;28;20193;-78
2023/12/18 12:13:44;;;;;;;35.08;18.27;;;;;;;;;;5012510;28;20213;-78
2023/12/18 12:16:16;;;;;;;33.08;18.10;;;;;;;;;;5032096;28;20207;-78
2023/12/18 12:18:45;;;;;;;32.85;17.20;;;;;;;;;;5029588;28;20189;-78
2023/12/18 12:21:13;;;;;;;41.33;18.70;;;;;;;;;;4996503;28;20201;-79
2023/12/18 12:23:41;;;;;;;44.63;19.48;;;;;;;;;;4996661;28;20289;-78
2023/12/18 12:26:09;;;;;;;30.45;17.52;;;;;;;;;;5013908;28;20193;-78
2023/12/18 12:28:36;;;;;;;33.30;17.90;;;;;;;;;;5012531;28;20201;-78
2023/12/18 12:31:03;;;;;;;68.53;26.90;;;;;;;;;;5013554;28;20961;-79
2023/12/18 12:33:42;;;;;;;39.88;19.33;;;;;;;;;;4996012;28;20229;-78
2023/12/18 12:36:10;;;;;;;37.85;18.88;;;;;;;;;;5030258;28;20271;-78
2023/12/18 12:38:39;;;;;;;37.17;18.70;;;;;;;;;;5031426;28;20196;-78
2023/12/18 12:41:06;;;;;;;52.90;23.48;;;;;;;;;;4996016;28;20337;-78
2023/12/18 12:43:33;;;;;;;38.92;18.15;;;;;;;;;;5012163;28;20209;-78
2023/12/18 12:46:01;;;;;;;35.45;18.23;;;;;;;;;;5013512;28;20655;-79
2023/12/18 12:48:28;;;;;;;46.63;20.75;;;;;;;;;;4996208;28;20236;-78
2023/12/18 12:50:57;;;;;;;42.00;19.77;;;;;;;;;;5013114;28;20193;-78
2023/12/18 12:53:24;;;;;;;43.08;19.95;;;;;;;;;;5013260;28;20241;-78
2023/12/18 12:55:51;;;;;;;42.05;20.17;;;;;;;;;;5012981;28;20558;-79
2023/12/18 12:58:18;;;;;;;40.83;18.40;;;;;;;;;;5013415;28;20219;-78
2023/12/18 13:00:45;;;;;;;32.10;17.77;;;;;;;;;;5012853;28;20209;-79
2023/12/18 13:03:13;;;;;;;46.55;20.38;;;;;;;;;;5013017;28;20658;-79
2023/12/18 13:05:40;;;;;;;50.28;21.23;;;;;;;;;;4995598;28;20200;-79
2023/12/18 13:08:09;;;;;;;36.33;18.27;;;;;;;;;;5012949;28;20213;-79
2023/12/18 13:10:36;;;;;;;42.10;19.63;;;;;;;;;;5013046;28;20292;-79
2023/12/18 13:13:03;;;;;;;37.53;18.70;;;;;;;;;;5013041;28;20605;-78
2023/12/18 13:15:30;;;;;;;33.58;17.02;;;;;;;;;;5013004;28;20278;-79
2023/12/18 13:17:58;;;;;;;35.08;18.33;;;;;;;;;;5012754;28;20528;-78
2023/12/18 13:20:26;;;;;;;41.47;18.98;;;;;;;;;;5012916;28;20197;-78
2023/12/18 13:22:56;;;;;;;38.38;17.85;;;;;;;;;;5012765;28;20563;-78
2023/12/18 13:25:23;;;;;;;41.63;19.27;;;;;;;;;;5004424;28;20673;-79
2023/12/18 13:27:51;;;;;;;62.23;22.07;;;;;;;;;;5011264;28;20217;-78
2023/12/18 13:30:18;;;;;;;33.63;18.67;;;;;;;;;;5011043;28;20245;-78
2023/12/18 13:32:45;;;;;;;31.58;17.52;;;;;;;;;;5011471;28;20237;-79
2023/12/18 13:35:12;;;;;;;63.60;27.00;;;;;;;;;;5007939;28;20616;-79
2023/12/18 13:37:40;;;;;;;42.08;18.75;;;;;;;;;;5015657;28;20220;-78
2023/12/18 13:40:08;;;;;;;35.38;18.27;;;;;;;;;;5010687;28;20237;-78
2023/12/18 13:42:35;;;;;;;41.70;18.48;;;;;;;;;;5017127;28;20224;-79
2023/12/18 13:45:03;;;;;;;56.90;23.40;;;;;;;;;;5014832;28;20229;-78
2023/12/18 13:47:30;;;;;;;36.40;17.70;;;;;;;;;;5016895;28;20701;-78
2023/12/18 13:49:58;;;;;;;33.45;17.63;;;;;;;;;;5016860;28;20694;-78
2023/12/18 13:52:25;;;;;;;33.22;18.60;;;;;;;;;;5016241;28;20247;-80
2023/12/18 13:54:53;;;;;;;36.88;18.50;;;;;;;;;;5016286;28;20224;-78
2023/12/18 13:57:21;;;;;;;60.53;23.58;;;;;;;;;;5010864;28;20578;-79
2023/12/18 13:59:48;;;;;;;42.78;19.35;;;;;;;;;;5017494;28;20233;-79
2023/12/18 14:02:15;;;;;;;78.97;31.65;;;;;;;;;;5017926;28;20252;-79
2023/12/18 14:04:42;;;;;;;133.27;53.03;;;;;;;;;;5017757;28;20225;-78
2023/12/18 14:07:10;;;;;;;51.47;23.27;;;;;;;;;;5008444;28;20245;-78
2023/12/18 14:09:37;;;;;;;69.53;29.98;;;;;;;;;;5016448;28;20216;-79
2023/12/18 14:12:05;;;;;;;83.55;32.80;;;;;;;;;;5016316;28;20229;-78
2023/12/18 14:14:32;;;;;;;41.53;20.80;;;;;;;;;;5016855;28;20225;-78
2023/12/18 14:16:59;;;;;;;54.17;24.60;;;;;;;;;;5017013;28;20233;-78
2023/12/18 14:19:26;;;;;;;43.83;23.23;;;;;;;;;;5034014;28;20708;-78
2023/12/18 14:21:54;;;;;;;34.70;18.42;;;;;;;;;;5036890;28;20294;-78